sensor_id;sensor_type;location;lat;lon;timestamp;P1;durP1;ratioP1;P2;durP2;ratioP2
72524;SDS011;60547;48.502;8.996;2022-10-16T00:00:42;4.55;;;1.60;;
72524;SDS011;60547;48.502;8.996;2022-10-16T00:03:08;4.97;;;1.63;;
72524;SDS011;60547;48.502;8.996;2022-10-16T00:05:38;3.25;;;1.83;;
72524;SDS011;60547;48.502;8.996;2022-10-16T00:08:07;8.38;;;2.08;;
72524;SDS011;60547;48.502;8.996;2022-10-16T00:10:35;5.20;;;1.48;;
72524;SDS011;60547;48.502;8.996;2022-10-16T00:13:00;4.07;;;2.00;;
72524;SDS011;60547;48.502;8.996;2022-10-16T00:15:26;5.13;;;2.10;;
72524;SDS011;60547;48.502;8.996;2022-10-16T00:17:52;4.35;;;1.60;;
72524;SDS011;60547;48.502;8.996;2022-10-16T00:20:17;5.60;;;1.85;;
72524;SDS011;60547;48.502;8.996;2022-10-16T00:22:42;4.30;;;1.48;;
72524;SDS011;60547;48.502;8.996;2022-10-16T00:25:08;4.25;;;1.80;;
72524;SDS011;60547;48.502;8.996;2022-10-16T00:27:34;3.30;;;1.60;;
72524;SDS011;60547;48.502;8.996;2022-10-16T00:29:59;5.95;;;1.50;;
72524;SDS011;60547;48.502;8.996;2022-10-16T00:32:24;5.90;;;1.90;;
72524;SDS011;60547;48.502;8.996;2022-10-16T00:34:50;4.10;;;1.60;;
72524;SDS011;60547;48.502;8.996;2022-10-16T00:37:16;4.65;;;1.85;;
72524;SDS011;60547;48.502;8.996;2022-10-16T00:39:41;5.13;;;1.85;;
72524;SDS011;60547;48.502;8.996;2022-10-16T00:42:09;3.72;;;1.52;;
72524;SDS011;60547;48.502;8.996;2022-10-16T00:44:47;3.53;;;1.80;;
72524;SDS011;60547;48.502;8.996;2022-10-16T00:50:04;4.43;;;1.80;;
72524;SDS011;60547;48.502;8.996;2022-10-16T00:52:34;4.72;;;1.80;;
72524;SDS011;60547;48.502;8.996;2022-10-16T00:55:02;3.72;;;1.60;;
72524;SDS011;60547;48.502;8.996;2022-10-16T00:57:29;4.65;;;2.15;;
72524;SDS011;60547;48.502;8.996;2022-10-16T00:59:55;4.18;;;1.83;;
72524;SDS011;60547;48.502;8.996;2022-10-16T01:02:21;4.43;;;1.60;;
72524;SDS011;60547;48.502;8.996;2022-10-16T01:04:50;3.53;;;1.73;;
72524;SDS011;60547;48.502;8.996;2022-10-16T01:13:09;3.53;;;1.50;;
72524;SDS011;60547;48.502;8.996;2022-10-16T01:15:41;4.00;;;1.50;;
72524;SDS011;60547;48.502;8.996;2022-10-16T01:18:18;3.35;;;1.50;;
72524;SDS011;60547;48.502;8.996;2022-10-16T01:21:02;3.22;;;1.40;;
72524;SDS011;60547;48.502;8.996;2022-10-16T01:26:20;5.50;;;1.65;;
72524;SDS011;60547;48.502;8.996;2022-10-16T01:32:15;4.68;;;1.92;;
72524;SDS011;60547;48.502;8.996;2022-10-16T01:34:51;6.40;;;1.90;;
72524;SDS011;60547;48.502;8.996;2022-10-16T01:37:33;3.10;;;1.30;;
72524;SDS011;60547;48.502;8.996;2022-10-16T01:40:05;4.93;;;2.10;;
72524;SDS011;60547;48.502;8.996;2022-10-16T01:42:35;4.10;;;1.80;;
72524;SDS011;60547;48.502;8.996;2022-10-16T01:45:05;5.03;;;1.85;;
72524;SDS011;60547;48.502;8.996;2022-10-16T01:47:32;4.85;;;1.77;;
72524;SDS011;60547;48.502;8.996;2022-10-16T01:50:00;3.33;;;1.50;;
72524;SDS011;60547;48.502;8.996;2022-10-16T01:52:29;5.45;;;1.45;;
72524;SDS011;60547;48.502;8.996;2022-10-16T01:54:59;3.38;;;1.70;;
72524;SDS011;60547;48.502;8.996;2022-10-16T01:57:27;6.72;;;1.60;;
72524;SDS011;60547;48.502;8.996;2022-10-16T01:59:56;4.28;;;1.88;;
72524;SDS011;60547;48.502;8.996;2022-10-16T02:02:25;4.13;;;1.58;;
72524;SDS011;60547;48.502;8.996;2022-10-16T02:04:55;3.72;;;1.60;;
72524;SDS011;60547;48.502;8.996;2022-10-16T02:07:26;8.32;;;2.22;;
72524;SDS011;60547;48.502;8.996;2022-10-16T02:09:52;6.75;;;2.10;;
72524;SDS011;60547;48.502;8.996;2022-10-16T02:12:23;6.03;;;2.38;;
72524;SDS011;60547;48.502;8.996;2022-10-16T02:14:52;3.00;;;1.50;;
72524;SDS011;60547;48.502;8.996;2022-10-16T02:17:18;4.30;;;1.75;;
72524;SDS011;60547;48.502;8.996;2022-10-16T02:19:44;5.63;;;1.73;;
72524;SDS011;60547;48.502;8.996;2022-10-16T02:22:15;4.40;;;1.63;;
72524;SDS011;60547;48.502;8.996;2022-10-16T02:25:25;3.65;;;1.73;;
72524;SDS011;60547;48.502;8.996;2022-10-16T02:28:01;4.68;;;1.88;;
72524;SDS011;60547;48.502;8.996;2022-10-16T02:33:10;4.25;;;2.25;;
72524;SDS011;60547;48.502;8.996;2022-10-16T02:35:38;6.47;;;1.88;;
72524;SDS011;60547;48.502;8.996;2022-10-16T02:38:06;3.63;;;1.60;;
72524;SDS011;60547;48.502;8.996;2022-10-16T02:40:33;4.30;;;1.90;;
72524;SDS011;60547;48.502;8.996;2022-10-16T02:42:59;4.28;;;1.52;;
72524;SDS011;60547;48.502;8.996;2022-10-16T02:45:24;5.22;;;1.88;;
72524;SDS011;60547;48.502;8.996;2022-10-16T02:47:50;4.80;;;1.77;;
72524;SDS011;60547;48.502;8.996;2022-10-16T02:50:16;4.20;;;1.60;;
72524;SDS011;60547;48.502;8.996;2022-10-16T02:52:41;5.18;;;1.95;;
72524;SDS011;60547;48.502;8.996;2022-10-16T02:55:07;3.88;;;1.85;;
72524;SDS011;60547;48.502;8.996;2022-10-16T02:57:32;6.97;;;1.80;;
72524;SDS011;60547;48.502;8.996;2022-10-16T02:59:58;5.40;;;1.60;;
72524;SDS011;60547;48.502;8.996;2022-10-16T03:02:24;4.30;;;1.80;;
72524;SDS011;60547;48.502;8.996;2022-10-16T03:04:49;5.68;;;2.03;;
72524;SDS011;60547;48.502;8.996;2022-10-16T03:07:14;4.32;;;1.55;;
72524;SDS011;60547;48.502;8.996;2022-10-16T03:09:40;7.00;;;2.05;;
72524;SDS011;60547;48.502;8.996;2022-10-16T03:12:05;4.32;;;1.58;;
72524;SDS011;60547;48.502;8.996;2022-10-16T03:14:31;4.65;;;1.80;;
72524;SDS011;60547;48.502;8.996;2022-10-16T03:16:57;7.20;;;1.92;;
72524;SDS011;60547;48.502;8.996;2022-10-16T03:19:22;6.05;;;2.10;;
72524;SDS011;60547;48.502;8.996;2022-10-16T03:21:47;4.80;;;1.80;;
72524;SDS011;60547;48.502;8.996;2022-10-16T03:24:13;3.83;;;1.50;;
72524;SDS011;60547;48.502;8.996;2022-10-16T03:26:38;6.65;;;1.88;;
72524;SDS011;60547;48.502;8.996;2022-10-16T03:29:04;3.53;;;1.70;;
72524;SDS011;60547;48.502;8.996;2022-10-16T03:31:30;5.97;;;1.75;;
72524;SDS011;60547;48.502;8.996;2022-10-16T03:33:55;4.53;;;1.80;;
72524;SDS011;60547;48.502;8.996;2022-10-16T03:36:21;6.15;;;2.03;;
72524;SDS011;60547;48.502;8.996;2022-10-16T03:38:46;4.38;;;1.83;;
72524;SDS011;60547;48.502;8.996;2022-10-16T03:41:11;3.63;;;1.48;;
72524;SDS011;60547;48.502;8.996;2022-10-16T03:43:37;3.47;;;1.50;;
72524;SDS011;60547;48.502;8.996;2022-10-16T03:46:02;3.65;;;1.75;;
72524;SDS011;60547;48.502;8.996;2022-10-16T03:48:28;4.45;;;1.52;;
72524;SDS011;60547;48.502;8.996;2022-10-16T03:50:54;4.13;;;1.80;;
72524;SDS011;60547;48.502;8.996;2022-10-16T03:53:19;5.82;;;1.85;;
72524;SDS011;60547;48.502;8.996;2022-10-16T03:55:45;4.53;;;1.70;;
72524;SDS011;60547;48.502;8.996;2022-10-16T03:58:11;5.43;;;1.92;;
72524;SDS011;60547;48.502;8.996;2022-10-16T04:00:40;3.85;;;1.65;;
72524;SDS011;60547;48.502;8.996;2022-10-16T04:03:10;4.53;;;1.55;;
72524;SDS011;60547;48.502;8.996;2022-10-16T04:05:36;5.72;;;2.05;;
72524;SDS011;60547;48.502;8.996;2022-10-16T04:08:02;5.28;;;2.05;;
72524;SDS011;60547;48.502;8.996;2022-10-16T04:10:27;3.58;;;1.35;;
72524;SDS011;60547;48.502;8.996;2022-10-16T04:12:53;4.55;;;1.92;;
72524;SDS011;60547;48.502;8.996;2022-10-16T04:15:24;4.30;;;1.50;;
72524;SDS011;60547;48.502;8.996;2022-10-16T04:17:50;5.35;;;1.80;;
72524;SDS011;60547;48.502;8.996;2022-10-16T04:20:16;2.80;;;1.58;;
72524;SDS011;60547;48.502;8.996;2022-10-16T04:22:42;4.65;;;1.52;;
72524;SDS011;60547;48.502;8.996;2022-10-16T04:25:08;3.33;;;1.80;;
72524;SDS011;60547;48.502;8.996;2022-10-16T04:27:33;5.13;;;1.73;;
72524;SDS011;60547;48.502;8.996;2022-10-16T04:29:59;4.13;;;1.50;;
72524;SDS011;60547;48.502;8.996;2022-10-16T04:32:25;3.55;;;1.63;;
72524;SDS011;60547;48.502;8.996;2022-10-16T04:34:51;3.25;;;1.50;;
72524;SDS011;60547;48.502;8.996;2022-10-16T04:37:17;5.13;;;1.85;;
72524;SDS011;60547;48.502;8.996;2022-10-16T04:39:42;4.00;;;1.73;;
72524;SDS011;60547;48.502;8.996;2022-10-16T04:42:07;3.80;;;1.67;;
72524;SDS011;60547;48.502;8.996;2022-10-16T04:44:33;3.20;;;1.70;;
72524;SDS011;60547;48.502;8.996;2022-10-16T04:46:58;3.65;;;1.60;;
72524;SDS011;60547;48.502;8.996;2022-10-16T04:49:23;2.90;;;1.50;;
72524;SDS011;60547;48.502;8.996;2022-10-16T04:51:49;4.88;;;1.90;;
72524;SDS011;60547;48.502;8.996;2022-10-16T04:54:14;4.72;;;1.73;;
72524;SDS011;60547;48.502;8.996;2022-10-16T04:56:40;4.80;;;1.70;;
72524;SDS011;60547;48.502;8.996;2022-10-16T04:59:11;3.92;;;2.00;;
72524;SDS011;60547;48.502;8.996;2022-10-16T05:01:38;3.92;;;1.65;;
72524;SDS011;60547;48.502;8.996;2022-10-16T05:04:03;3.70;;;1.52;;
72524;SDS011;60547;48.502;8.996;2022-10-16T05:06:29;4.65;;;1.83;;
72524;SDS011;60547;48.502;8.996;2022-10-16T05:08:57;5.50;;;1.65;;
72524;SDS011;60547;48.502;8.996;2022-10-16T05:11:22;6.40;;;1.90;;
72524;SDS011;60547;48.502;8.996;2022-10-16T05:13:48;5.45;;;1.80;;
72524;SDS011;60547;48.502;8.996;2022-10-16T05:16:13;4.00;;;1.88;;
72524;SDS011;60547;48.502;8.996;2022-10-16T05:18:39;3.85;;;2.08;;
72524;SDS011;60547;48.502;8.996;2022-10-16T05:21:04;3.92;;;1.75;;
72524;SDS011;60547;48.502;8.996;2022-10-16T05:23:30;4.28;;;1.70;;
72524;SDS011;60547;48.502;8.996;2022-10-16T05:25:56;3.03;;;1.70;;
72524;SDS011;60547;48.502;8.996;2022-10-16T05:28:23;4.28;;;1.80;;
72524;SDS011;60547;48.502;8.996;2022-10-16T05:30:49;3.33;;;1.92;;
72524;SDS011;60547;48.502;8.996;2022-10-16T05:33:15;3.72;;;1.45;;
72524;SDS011;60547;48.502;8.996;2022-10-16T05:35:40;5.60;;;1.65;;
72524;SDS011;60547;48.502;8.996;2022-10-16T05:38:06;4.78;;;1.60;;
72524;SDS011;60547;48.502;8.996;2022-10-16T05:40:31;5.68;;;1.60;;
72524;SDS011;60547;48.502;8.996;2022-10-16T05:42:56;3.20;;;1.55;;
72524;SDS011;60547;48.502;8.996;2022-10-16T05:45:22;3.10;;;1.70;;
72524;SDS011;60547;48.502;8.996;2022-10-16T05:47:47;7.93;;;1.83;;
72524;SDS011;60547;48.502;8.996;2022-10-16T05:50:12;4.07;;;1.95;;
72524;SDS011;60547;48.502;8.996;2022-10-16T05:52:38;3.80;;;1.65;;
72524;SDS011;60547;48.502;8.996;2022-10-16T05:55:03;4.25;;;1.80;;
72524;SDS011;60547;48.502;8.996;2022-10-16T05:57:29;3.40;;;1.70;;
72524;SDS011;60547;48.502;8.996;2022-10-16T05:59:55;3.90;;;1.90;;
72524;SDS011;60547;48.502;8.996;2022-10-16T06:02:20;4.40;;;1.85;;
72524;SDS011;60547;48.502;8.996;2022-10-16T06:04:45;4.47;;;1.70;;
72524;SDS011;60547;48.502;8.996;2022-10-16T06:07:11;4.38;;;1.85;;
72524;SDS011;60547;48.502;8.996;2022-10-16T06:09:36;3.33;;;1.75;;
72524;SDS011;60547;48.502;8.996;2022-10-16T06:12:01;5.80;;;2.10;;
72524;SDS011;60547;48.502;8.996;2022-10-16T06:14:27;5.68;;;2.22;;
72524;SDS011;60547;48.502;8.996;2022-10-16T06:16:52;5.38;;;1.65;;
72524;SDS011;60547;48.502;8.996;2022-10-16T06:19:18;4.93;;;1.45;;
72524;SDS011;60547;48.502;8.996;2022-10-16T06:21:46;5.97;;;1.70;;
72524;SDS011;60547;48.502;8.996;2022-10-16T06:24:11;3.88;;;1.50;;
72524;SDS011;60547;48.502;8.996;2022-10-16T06:26:37;8.48;;;2.03;;
72524;SDS011;60547;48.502;8.996;2022-10-16T06:29:03;4.20;;;1.40;;
72524;SDS011;60547;48.502;8.996;2022-10-16T06:31:28;4.25;;;1.73;;
72524;SDS011;60547;48.502;8.996;2022-10-16T06:33:55;3.78;;;1.70;;
72524;SDS011;60547;48.502;8.996;2022-10-16T06:36:22;3.63;;;1.90;;
72524;SDS011;60547;48.502;8.996;2022-10-16T06:38:48;6.55;;;2.58;;
72524;SDS011;60547;48.502;8.996;2022-10-16T06:41:17;3.75;;;2.13;;
72524;SDS011;60547;48.502;8.996;2022-10-16T06:43:45;5.32;;;2.75;;
72524;SDS011;60547;48.502;8.996;2022-10-16T06:46:11;7.10;;;2.75;;
72524;SDS011;60547;48.502;8.996;2022-10-16T06:48:39;5.18;;;2.63;;
72524;SDS011;60547;48.502;8.996;2022-10-16T06:51:06;6.60;;;3.08;;
72524;SDS011;60547;48.502;8.996;2022-10-16T06:53:34;5.32;;;2.33;;
72524;SDS011;60547;48.502;8.996;2022-10-16T06:56:08;4.75;;;2.13;;
72524;SDS011;60547;48.502;8.996;2022-10-16T06:58:35;6.03;;;2.13;;
72524;SDS011;60547;48.502;8.996;2022-10-16T07:01:01;7.35;;;2.15;;
72524;SDS011;60547;48.502;8.996;2022-10-16T07:03:26;3.83;;;1.90;;
72524;SDS011;60547;48.502;8.996;2022-10-16T07:05:51;5.22;;;2.42;;
72524;SDS011;60547;48.502;8.996;2022-10-16T07:08:17;3.70;;;2.00;;
72524;SDS011;60547;48.502;8.996;2022-10-16T07:10:42;5.68;;;2.17;;
72524;SDS011;60547;48.502;8.996;2022-10-16T07:13:07;3.58;;;2.17;;
72524;SDS011;60547;48.502;8.996;2022-10-16T07:15:33;5.25;;;2.00;;
72524;SDS011;60547;48.502;8.996;2022-10-16T07:17:58;4.72;;;1.88;;
72524;SDS011;60547;48.502;8.996;2022-10-16T07:20:24;6.93;;;2.17;;
72524;SDS011;60547;48.502;8.996;2022-10-16T07:22:49;7.18;;;2.10;;
72524;SDS011;60547;48.502;8.996;2022-10-16T07:25:15;5.22;;;2.17;;
72524;SDS011;60547;48.502;8.996;2022-10-16T07:27:40;5.80;;;2.10;;
72524;SDS011;60547;48.502;8.996;2022-10-16T07:30:06;4.60;;;2.35;;
72524;SDS011;60547;48.502;8.996;2022-10-16T07:32:32;5.28;;;2.25;;
72524;SDS011;60547;48.502;8.996;2022-10-16T07:34:57;5.45;;;2.70;;
72524;SDS011;60547;48.502;8.996;2022-10-16T07:37:22;5.95;;;2.67;;
72524;SDS011;60547;48.502;8.996;2022-10-16T07:39:48;5.22;;;3.05;;
72524;SDS011;60547;48.502;8.996;2022-10-16T07:42:13;7.70;;;3.40;;
72524;SDS011;60547;48.502;8.996;2022-10-16T07:44:39;6.00;;;3.30;;
72524;SDS011;60547;48.502;8.996;2022-10-16T07:47:05;5.25;;;2.95;;
72524;SDS011;60547;48.502;8.996;2022-10-16T07:49:30;5.07;;;2.33;;
72524;SDS011;60547;48.502;8.996;2022-10-16T07:51:58;6.28;;;2.53;;
72524;SDS011;60547;48.502;8.996;2022-10-16T07:54:23;4.93;;;2.00;;
72524;SDS011;60547;48.502;8.996;2022-10-16T07:56:49;4.40;;;2.22;;
72524;SDS011;60547;48.502;8.996;2022-10-16T07:59:14;4.60;;;2.03;;
72524;SDS011;60547;48.502;8.996;2022-10-16T08:01:39;4.25;;;2.22;;
72524;SDS011;60547;48.502;8.996;2022-10-16T08:04:07;5.93;;;1.95;;
72524;SDS011;60547;48.502;8.996;2022-10-16T08:06:38;7.72;;;2.70;;
72524;SDS011;60547;48.502;8.996;2022-10-16T08:09:05;5.05;;;2.22;;
72524;SDS011;60547;48.502;8.996;2022-10-16T08:11:32;6.72;;;2.53;;
72524;SDS011;60547;48.502;8.996;2022-10-16T08:13:57;5.35;;;2.20;;
72524;SDS011;60547;48.502;8.996;2022-10-16T08:16:23;5.78;;;2.60;;
72524;SDS011;60547;48.502;8.996;2022-10-16T08:18:49;6.88;;;4.20;;
72524;SDS011;60547;48.502;8.996;2022-10-16T08:21:16;6.80;;;2.97;;
72524;SDS011;60547;48.502;8.996;2022-10-16T08:23:43;4.72;;;2.30;;
72524;SDS011;60547;48.502;8.996;2022-10-16T08:26:09;3.92;;;2.17;;
72524;SDS011;60547;48.502;8.996;2022-10-16T08:28:36;6.43;;;2.58;;
72524;SDS011;60547;48.502;8.996;2022-10-16T08:31:20;5.78;;;2.80;;
72524;SDS011;60547;48.502;8.996;2022-10-16T08:33:45;8.05;;;3.88;;
72524;SDS011;60547;48.502;8.996;2022-10-16T08:36:12;5.72;;;2.28;;
72524;SDS011;60547;48.502;8.996;2022-10-16T08:38:39;4.15;;;2.28;;
72524;SDS011;60547;48.502;8.996;2022-10-16T08:41:40;6.15;;;2.53;;
72524;SDS011;60547;48.502;8.996;2022-10-16T08:49:37;3.90;;;1.98;;
72524;SDS011;60547;48.502;8.996;2022-10-16T08:52:11;4.60;;;2.00;;
72524;SDS011;60547;48.502;8.996;2022-10-16T08:54:41;5.28;;;1.85;;
72524;SDS011;60547;48.502;8.996;2022-10-16T08:57:15;4.13;;;2.00;;
72524;SDS011;60547;48.502;8.996;2022-10-16T08:59:45;6.30;;;2.58;;
72524;SDS011;60547;48.502;8.996;2022-10-16T09:13:00;4.85;;;2.10;;
72524;SDS011;60547;48.502;8.996;2022-10-16T09:18:05;3.72;;;1.95;;
72524;SDS011;60547;48.502;8.996;2022-10-16T09:20:55;5.32;;;1.83;;
72524;SDS011;60547;48.502;8.996;2022-10-16T09:23:41;3.45;;;1.77;;
72524;SDS011;60547;48.502;8.996;2022-10-16T09:26:09;5.50;;;1.98;;
72524;SDS011;60547;48.502;8.996;2022-10-16T09:28:37;4.72;;;2.15;;
72524;SDS011;60547;48.502;8.996;2022-10-16T09:31:03;5.93;;;2.25;;
72524;SDS011;60547;48.502;8.996;2022-10-16T09:33:35;4.95;;;2.20;;
72524;SDS011;60547;48.502;8.996;2022-10-16T09:36:04;7.20;;;3.08;;
72524;SDS011;60547;48.502;8.996;2022-10-16T09:38:32;5.75;;;2.90;;
72524;SDS011;60547;48.502;8.996;2022-10-16T09:41:01;4.47;;;2.70;;
72524;SDS011;60547;48.502;8.996;2022-10-16T09:43:32;5.40;;;2.20;;
72524;SDS011;60547;48.502;8.996;2022-10-16T09:46:05;4.07;;;2.25;;
72524;SDS011;60547;48.502;8.996;2022-10-16T09:51:03;4.25;;;2.08;;
72524;SDS011;60547;48.502;8.996;2022-10-16T09:53:45;4.80;;;2.10;;
72524;SDS011;60547;48.502;8.996;2022-10-16T09:56:20;3.83;;;1.73;;
72524;SDS011;60547;48.502;8.996;2022-10-16T09:58:54;4.45;;;1.95;;
72524;SDS011;60547;48.502;8.996;2022-10-16T10:01:21;5.10;;;1.90;;
72524;SDS011;60547;48.502;8.996;2022-10-16T10:03:55;4.45;;;1.65;;
72524;SDS011;60547;48.502;8.996;2022-10-16T10:06:27;4.55;;;1.63;;
72524;SDS011;60547;48.502;8.996;2022-10-16T10:11:49;5.00;;;1.80;;
72524;SDS011;60547;48.502;8.996;2022-10-16T10:17:09;6.25;;;2.25;;
72524;SDS011;60547;48.502;8.996;2022-10-16T10:19:57;4.43;;;2.10;;
72524;SDS011;60547;48.502;8.996;2022-10-16T10:41:37;4.70;;;1.60;;
72524;SDS011;60547;48.502;8.996;2022-10-16T10:44:20;2.72;;;1.20;;
72524;SDS011;60547;48.502;8.996;2022-10-16T10:49:53;3.33;;;1.30;;
72524;SDS011;60547;48.502;8.996;2022-10-16T10:57:35;2.85;;;1.25;;
72524;SDS011;60547;48.502;8.996;2022-10-16T11:00:16;3.50;;;1.50;;
72524;SDS011;60547;48.502;8.996;2022-10-16T11:07:52;3.55;;;1.20;;
72524;SDS011;60547;48.502;8.996;2022-10-16T11:10:24;3.38;;;1.67;;
72524;SDS011;60547;48.502;8.996;2022-10-16T11:12:58;2.10;;;1.05;;
72524;SDS011;60547;48.502;8.996;2022-10-16T11:15:36;5.00;;;1.40;;
72524;SDS011;60547;48.502;8.996;2022-10-16T11:23:30;2.00;;;1.10;;
72524;SDS011;60547;48.502;8.996;2022-10-16T11:26:04;2.53;;;1.10;;
72524;SDS011;60547;48.502;8.996;2022-10-16T11:28:46;2.83;;;1.15;;
72524;SDS011;60547;48.502;8.996;2022-10-16T11:31:17;2.10;;;0.90;;
72524;SDS011;60547;48.502;8.996;2022-10-16T11:36:25;2.20;;;1.10;;
72524;SDS011;60547;48.502;8.996;2022-10-16T11:39:09;2.42;;;1.10;;
72524;SDS011;60547;48.502;8.996;2022-10-16T11:41:49;2.08;;;1.00;;
72524;SDS011;60547;48.502;8.996;2022-10-16T11:44:20;2.20;;;1.10;;
72524;SDS011;60547;48.502;8.996;2022-10-16T11:46:51;2.08;;;1.02;;
72524;SDS011;60547;48.502;8.996;2022-10-16T11:49:26;3.20;;;1.15;;
72524;SDS011;60547;48.502;8.996;2022-10-16T11:54:37;3.38;;;1.27;;
72524;SDS011;60547;48.502;8.996;2022-10-16T11:57:15;4.47;;;1.17;;
72524;SDS011;60547;48.502;8.996;2022-10-16T12:00:24;2.92;;;1.30;;
72524;SDS011;60547;48.502;8.996;2022-10-16T12:08:17;6.82;;;1.20;;
72524;SDS011;60547;48.502;8.996;2022-10-16T12:10:44;2.85;;;1.20;;
72524;SDS011;60547;48.502;8.996;2022-10-16T12:16:07;2.03;;;1.10;;
72524;SDS011;60547;48.502;8.996;2022-10-16T12:18:46;3.38;;;1.02;;
72524;SDS011;60547;48.502;8.996;2022-10-16T12:21:12;3.75;;;1.08;;
72524;SDS011;60547;48.502;8.996;2022-10-16T12:23:54;2.60;;;1.05;;
72524;SDS011;60547;48.502;8.996;2022-10-16T12:26:31;3.30;;;1.17;;
72524;SDS011;60547;48.502;8.996;2022-10-16T12:29:20;2.30;;;0.90;;
72524;SDS011;60547;48.502;8.996;2022-10-16T12:32:18;2.40;;;1.27;;
72524;SDS011;60547;48.502;8.996;2022-10-16T12:34:56;3.05;;;1.30;;
72524;SDS011;60547;48.502;8.996;2022-10-16T12:39:53;3.97;;;1.20;;
72524;SDS011;60547;48.502;8.996;2022-10-16T12:45:23;2.30;;;1.20;;
72524;SDS011;60547;48.502;8.996;2022-10-16T12:47:51;2.05;;;1.10;;
72524;SDS011;60547;48.502;8.996;2022-10-16T12:50:32;2.97;;;1.13;;
72524;SDS011;60547;48.502;8.996;2022-10-16T12:53:01;3.92;;;1.25;;
72524;SDS011;60547;48.502;8.996;2022-10-16T12:55:32;2.58;;;1.20;;
72524;SDS011;60547;48.502;8.996;2022-10-16T12:58:17;3.20;;;1.30;;
72524;SDS011;60547;48.502;8.996;2022-10-16T13:14:35;2.35;;;1.33;;
72524;SDS011;60547;48.502;8.996;2022-10-16T13:28:45;3.40;;;1.50;;
72524;SDS011;60547;48.502;8.996;2022-10-16T13:31:13;3.03;;;1.27;;
72524;SDS011;60547;48.502;8.996;2022-10-16T13:33:46;3.65;;;1.50;;
72524;SDS011;60547;48.502;8.996;2022-10-16T13:36:19;2.85;;;1.40;;
72524;SDS011;60547;48.502;8.996;2022-10-16T13:41:40;3.65;;;1.30;;
72524;SDS011;60547;48.502;8.996;2022-10-16T13:44:24;4.50;;;1.23;;
72524;SDS011;60547;48.502;8.996;2022-10-16T13:46:59;4.47;;;1.40;;
72524;SDS011;60547;48.502;8.996;2022-10-16T13:49:25;3.70;;;1.67;;
72524;SDS011;60547;48.502;8.996;2022-10-16T13:51:58;4.50;;;1.40;;
72524;SDS011;60547;48.502;8.996;2022-10-16T13:54:24;2.88;;;1.33;;
72524;SDS011;60547;48.502;8.996;2022-10-16T13:56:51;3.47;;;1.40;;
72524;SDS011;60547;48.502;8.996;2022-10-16T13:59:27;3.55;;;1.42;;
72524;SDS011;60547;48.502;8.996;2022-10-16T14:01:58;4.97;;;1.80;;
72524;SDS011;60547;48.502;8.996;2022-10-16T14:04:31;3.63;;;1.60;;
72524;SDS011;60547;48.502;8.996;2022-10-16T14:06:58;3.60;;;1.60;;
72524;SDS011;60547;48.502;8.996;2022-10-16T14:09:27;3.22;;;1.38;;
72524;SDS011;60547;48.502;8.996;2022-10-16T14:11:56;3.78;;;1.63;;
72524;SDS011;60547;48.502;8.996;2022-10-16T14:14:27;3.80;;;1.50;;
72524;SDS011;60547;48.502;8.996;2022-10-16T14:17:19;2.90;;;1.50;;
72524;SDS011;60547;48.502;8.996;2022-10-16T14:19:48;2.90;;;1.55;;
72524;SDS011;60547;48.502;8.996;2022-10-16T14:22:21;3.20;;;1.40;;
72524;SDS011;60547;48.502;8.996;2022-10-16T14:24:54;3.47;;;1.60;;
72524;SDS011;60547;48.502;8.996;2022-10-16T14:30:01;3.38;;;1.60;;
72524;SDS011;60547;48.502;8.996;2022-10-16T14:32:32;2.85;;;1.50;;
72524;SDS011;60547;48.502;8.996;2022-10-16T14:34:57;3.20;;;1.30;;
72524;SDS011;60547;48.502;8.996;2022-10-16T14:37:24;3.38;;;1.45;;
72524;SDS011;60547;48.502;8.996;2022-10-16T14:39:52;3.22;;;1.30;;
72524;SDS011;60547;48.502;8.996;2022-10-16T14:42:19;2.90;;;1.40;;
72524;SDS011;60547;48.502;8.996;2022-10-16T14:44:48;3.50;;;1.50;;
72524;SDS011;60547;48.502;8.996;2022-10-16T14:47:18;4.30;;;1.60;;
72524;SDS011;60547;48.502;8.996;2022-10-16T14:49:47;3.72;;;1.60;;
72524;SDS011;60547;48.502;8.996;2022-10-16T14:52:13;3.65;;;1.70;;
72524;SDS011;60547;48.502;8.996;2022-10-16T14:54:39;3.20;;;1.40;;
72524;SDS011;60547;48.502;8.996;2022-10-16T14:57:05;4.28;;;1.48;;
72524;SDS011;60547;48.502;8.996;2022-10-16T14:59:41;5.50;;;1.67;;
72524;SDS011;60547;48.502;8.996;2022-10-16T15:02:25;3.33;;;1.60;;
72524;SDS011;60547;48.502;8.996;2022-10-16T15:04:54;3.40;;;1.55;;
72524;SDS011;60547;48.502;8.996;2022-10-16T15:07:20;3.92;;;1.50;;
72524;SDS011;60547;48.502;8.996;2022-10-16T15:09:46;2.72;;;1.50;;
72524;SDS011;60547;48.502;8.996;2022-10-16T15:12:11;2.72;;;1.30;;
72524;SDS011;60547;48.502;8.996;2022-10-16T15:14:37;3.30;;;1.67;;
72524;SDS011;60547;48.502;8.996;2022-10-16T15:17:02;3.55;;;2.00;;
72524;SDS011;60547;48.502;8.996;2022-10-16T15:19:28;3.05;;;1.55;;
72524;SDS011;60547;48.502;8.996;2022-10-16T15:21:53;3.63;;;1.70;;
72524;SDS011;60547;48.502;8.996;2022-10-16T15:24:19;3.58;;;1.70;;
72524;SDS011;60547;48.502;8.996;2022-10-16T15:26:44;3.20;;;1.40;;
72524;SDS011;60547;48.502;8.996;2022-10-16T15:29:11;5.32;;;1.90;;
72524;SDS011;60547;48.502;8.996;2022-10-16T15:31:37;4.05;;;1.60;;
72524;SDS011;60547;48.502;8.996;2022-10-16T15:34:02;4.32;;;1.55;;
72524;SDS011;60547;48.502;8.996;2022-10-16T15:36:33;3.60;;;2.00;;
72524;SDS011;60547;48.502;8.996;2022-10-16T15:39:05;3.28;;;1.77;;
72524;SDS011;60547;48.502;8.996;2022-10-16T15:41:37;3.90;;;1.65;;
72524;SDS011;60547;48.502;8.996;2022-10-16T15:44:02;4.18;;;1.60;;
72524;SDS011;60547;48.502;8.996;2022-10-16T15:46:28;4.53;;;1.83;;
72524;SDS011;60547;48.502;8.996;2022-10-16T15:48:56;4.45;;;1.80;;
72524;SDS011;60547;48.502;8.996;2022-10-16T15:51:23;5.03;;;1.80;;
72524;SDS011;60547;48.502;8.996;2022-10-16T15:53:49;3.92;;;1.65;;
72524;SDS011;60547;48.502;8.996;2022-10-16T15:56:15;5.43;;;2.10;;
72524;SDS011;60547;48.502;8.996;2022-10-16T15:58:42;3.85;;;1.75;;
72524;SDS011;60547;48.502;8.996;2022-10-16T16:01:08;3.95;;;1.80;;
72524;SDS011;60547;48.502;8.996;2022-10-16T16:03:35;4.28;;;1.92;;
72524;SDS011;60547;48.502;8.996;2022-10-16T16:06:05;6.75;;;2.63;;
72524;SDS011;60547;48.502;8.996;2022-10-16T16:08:32;3.90;;;1.83;;
72524;SDS011;60547;48.502;8.996;2022-10-16T16:10:59;6.32;;;2.33;;
72524;SDS011;60547;48.502;8.996;2022-10-16T16:13:25;6.75;;;2.58;;
72524;SDS011;60547;48.502;8.996;2022-10-16T16:15:50;6.82;;;2.50;;
72524;SDS011;60547;48.502;8.996;2022-10-16T16:18:16;6.57;;;2.53;;
72524;SDS011;60547;48.502;8.996;2022-10-16T16:20:41;5.53;;;2.35;;
72524;SDS011;60547;48.502;8.996;2022-10-16T16:23:06;5.28;;;2.35;;
72524;SDS011;60547;48.502;8.996;2022-10-16T16:25:32;4.88;;;2.15;;
72524;SDS011;60547;48.502;8.996;2022-10-16T16:27:57;4.00;;;1.95;;
72524;SDS011;60547;48.502;8.996;2022-10-16T16:30:22;6.72;;;1.80;;
72524;SDS011;60547;48.502;8.996;2022-10-16T16:32:48;5.53;;;2.13;;
72524;SDS011;60547;48.502;8.996;2022-10-16T16:35:13;4.25;;;2.25;;
72524;SDS011;60547;48.502;8.996;2022-10-16T16:37:39;4.93;;;2.00;;
72524;SDS011;60547;48.502;8.996;2022-10-16T16:40:04;4.63;;;2.00;;
72524;SDS011;60547;48.502;8.996;2022-10-16T16:42:30;4.65;;;2.20;;
72524;SDS011;60547;48.502;8.996;2022-10-16T16:44:55;4.78;;;2.22;;
72524;SDS011;60547;48.502;8.996;2022-10-16T16:47:21;5.55;;;2.70;;
72524;SDS011;60547;48.502;8.996;2022-10-16T16:49:46;4.85;;;2.63;;
72524;SDS011;60547;48.502;8.996;2022-10-16T16:52:12;4.55;;;2.58;;
72524;SDS011;60547;48.502;8.996;2022-10-16T16:54:38;6.90;;;2.30;;
72524;SDS011;60547;48.502;8.996;2022-10-16T16:57:03;5.20;;;2.47;;
72524;SDS011;60547;48.502;8.996;2022-10-16T16:59:29;8.68;;;2.50;;
72524;SDS011;60547;48.502;8.996;2022-10-16T17:01:57;6.78;;;2.80;;
72524;SDS011;60547;48.502;8.996;2022-10-16T17:04:23;6.07;;;2.50;;
72524;SDS011;60547;48.502;8.996;2022-10-16T17:06:49;3.83;;;2.50;;
72524;SDS011;60547;48.502;8.996;2022-10-16T17:09:14;7.05;;;2.47;;